Time;durP1;ratioP1;P1;durP2;ratioP2;P2;SDS_P1;SDS_P2;PMS_P1;PMS_P2;Temp;Humidity;BMP_temperature;BMP_pressure;BME280_temperature;BME280_humidity;BME280_pressure;Samples;Min_cycle;Max_cycle;Signal;HPM_P1;HPM_P2
2023/10/04 00:00:59;;;;;;;;;;;24.30;69.20;;;;;;5122585;28;19979;-48
2023/10/04 00:03:28;;;;;;;;;;;24.30;69.20;;;;;;5115836;28;19908;-48
2023/10/04 00:05:54;;;;;;;;;;;24.30;69.10;;;;;;5122287;28;19912;-48
2023/10/04 00:08:23;;;;;;;;;;;24.30;69.20;;;;;;5122830;28;19908;-49
2023/10/04 00:10:49;;;;;;;;;;;24.30;69.20;;;;;;5120015;28;20364;-48
2023/10/04 00:13:15;;;;;;;;;;;24.30;69.20;;;;;;5138145;28;19911;-48
2023/10/04 00:15:41;;;;;;;;;;;24.20;69.20;;;;;;5122503;28;20366;-48
2023/10/04 00:18:08;;;;;;;;;;;24.30;69.10;;;;;;5122596;28;19919;-49
2023/10/04 00:20:35;;;;;;;;;;;24.20;69.70;;;;;;5122970;28;19919;-49
2023/10/04 00:23:04;;;;;;;;;;;24.30;68.90;;;;;;5122127;28;19958;-48
2023/10/04 00:25:30;;;;;;;;;;;24.20;68.90;;;;;;5104468;28;19911;-49
2023/10/04 00:27:56;;;;;;;;;;;24.20;68.90;;;;;;5122884;28;19914;-49
2023/10/04 00:30:22;;;;;;;;;;;24.20;69.00;;;;;;5115910;28;19912;-47
2023/10/04 00:32:48;;;;;;;;;;;24.20;69.00;;;;;;5120464;28;19915;-51
2023/10/04 00:35:17;;;;;;;;;;;24.20;69.10;;;;;;5120197;28;19912;-50
2023/10/04 00:37:44;;;;;;;;;;;24.20;69.10;;;;;;5137753;27;19918;-48
2023/10/04 00:40:14;;;;;;;;;;;24.20;69.00;;;;;;5122289;28;20377;-50
2023/10/04 00:42:40;;;;;;;;;;;24.20;68.90;;;;;;5104605;28;19912;-49
2023/10/04 00:45:09;;;;;;;;;;;24.20;68.80;;;;;;5113224;28;19912;-48
2023/10/04 00:47:35;;;;;;;;;;;24.20;68.70;;;;;;5104213;28;19912;-48
2023/10/04 00:50:12;;;;;;;;;;;24.20;68.70;;;;;;5119749;28;19943;-49
2023/10/04 00:52:38;;;;;;;;;;;24.20;68.50;;;;;;5125405;27;19962;-50
2023/10/04 00:55:06;;;;;;;;;;;24.10;68.20;;;;;;5107318;27;20546;-48
2023/10/04 00:57:32;;;;;;;;;;;24.10;68.00;;;;;;5141206;27;19966;-50
2023/10/04 00:59:58;;;;;;;;;;;24.10;68.00;;;;;;5118366;28;19920;-49
2023/10/04 01:02:23;;;;;;;;;;;24.10;67.90;;;;;;5119207;27;19971;-50
2023/10/04 01:04:49;;;;;;;;;;;24.10;67.90;;;;;;5126627;28;20360;-49
2023/10/04 01:07:16;;;;;;;;;;;24.10;67.80;;;;;;5121011;28;19919;-48
2023/10/04 01:09:42;;;;;;;;;;;24.10;67.90;;;;;;5122345;28;19920;-48
2023/10/04 01:12:08;;;;;;;;;;;24.10;67.80;;;;;;5125137;28;19908;-52
2023/10/04 01:14:38;;;;;;;;;;;24.10;67.70;;;;;;5126018;28;19919;-51
2023/10/04 01:17:04;;;;;;;;;;;24.10;67.70;;;;;;5125778;27;19918;-47
2023/10/04 01:19:30;;;;;;;;;;;24.00;67.70;;;;;;5112714;28;19966;-48
2023/10/04 01:21:56;;;;;;;;;;;24.10;67.80;;;;;;5116753;28;20365;-49
2023/10/04 01:24:22;;;;;;;;;;;24.10;67.80;;;;;;5125297;27;19965;-51
2023/10/04 01:26:48;;;;;;;;;;;24.00;67.70;;;;;;5125516;28;20336;-50
2023/10/04 01:29:15;;;;;;;;;;;24.00;67.90;;;;;;5121813;27;19922;-51
2023/10/04 01:31:42;;;;;;;;;;;24.00;67.80;;;;;;5122060;28;19911;-48
2023/10/04 01:34:08;;;;;;;;;;;24.00;67.80;;;;;;5124773;28;19919;-49
2023/10/04 01:36:36;;;;;;;;;;;24.00;67.90;;;;;;5106886;28;19920;-49
2023/10/04 01:39:07;;;;;;;;;;;24.00;67.80;;;;;;5124565;27;19916;-51
2023/10/04 01:41:39;;;;;;;;;;;24.00;67.80;;;;;;5140605;27;19907;-48
2023/10/04 01:44:06;;;;;;;;;;;24.00;67.80;;;;;;5124606;28;19926;-50
2023/10/04 01:46:32;;;;;;;;;;;24.00;68.60;;;;;;5119962;28;19908;-49
2023/10/04 01:48:58;;;;;;;;;;;24.00;67.80;;;;;;5115672;28;19919;-49
2023/10/04 01:51:27;;;;;;;;;;;23.90;67.80;;;;;;5137065;27;19997;-51
2023/10/04 01:53:53;;;;;;;;;;;23.90;67.70;;;;;;5121749;28;19912;-48
2023/10/04 01:56:19;;;;;;;;;;;23.90;67.80;;;;;;5124760;28;19941;-51
2023/10/04 01:58:48;;;;;;;;;;;23.90;67.70;;;;;;5125197;28;19920;-48
2023/10/04 02:01:14;;;;;;;;;;;23.90;67.70;;;;;;5109774;28;19958;-48
2023/10/04 02:03:40;;;;;;;;;;;23.90;67.70;;;;;;5117348;27;19919;-48
2023/10/04 02:06:08;;;;;;;;;;;23.80;67.60;;;;;;5124343;27;19912;-49
2023/10/04 02:08:34;;;;;;;;;;;23.90;67.70;;;;;;5114670;28;19939;-48
2023/10/04 02:11:00;;;;;;;;;;;23.90;67.70;;;;;;5107237;28;19927;-52
2023/10/04 02:13:27;;;;;;;;;;;23.80;67.60;;;;;;5097322;28;19912;-49
2023/10/04 02:15:53;;;;;;;;;;;23.80;67.60;;;;;;5139884;27;20493;-48
2023/10/04 02:18:19;;;;;;;;;;;23.80;67.70;;;;;;5098636;28;19918;-51
2023/10/04 02:20:54;;;;;;;;;;;23.80;67.70;;;;;;5132283;27;19919;-50
2023/10/04 02:23:21;;;;;;;;;;;23.80;67.70;;;;;;5123893;28;19963;-50
2023/10/04 02:25:47;;;;;;;;;;;23.80;67.60;;;;;;5117015;28;19916;-48
2023/10/04 02:28:18;;;;;;;;;;;23.80;67.70;;;;;;5137774;27;19911;-49
2023/10/04 02:30:47;;;;;;;;;;;23.80;67.80;;;;;;5120655;27;19912;-49
2023/10/04 02:33:16;;;;;;;;;;;23.80;67.80;;;;;;5127013;27;19957;-50
2023/10/04 02:35:46;;;;;;;;;;;23.70;67.80;;;;;;5131834;27;19946;-49
2023/10/04 02:38:23;;;;;;;;;;;23.70;67.80;;;;;;5122878;27;19922;-49
2023/10/04 02:40:51;;;;;;;;;;;23.70;67.90;;;;;;5116348;28;19922;-52
2023/10/04 02:43:18;;;;;;;;;;;23.70;67.80;;;;;;5116445;28;20339;-50
2023/10/04 02:45:47;;;;;;;;;;;23.70;67.80;;;;;;5132133;27;19911;-49
2023/10/04 02:48:13;;;;;;;;;;;23.70;67.80;;;;;;5115435;27;19953;-48
2023/10/04 02:50:42;;;;;;;;;;;23.70;67.80;;;;;;5132799;27;19986;-48
2023/10/04 02:53:16;;;;;;;;;;;23.70;67.90;;;;;;5096911;28;19919;-49
2023/10/04 02:55:46;;;;;;;;;;;23.60;67.90;;;;;;5117722;27;19919;-51
2023/10/04 02:58:13;;;;;;;;;;;23.60;67.80;;;;;;5121626;28;19920;-48
2023/10/04 03:00:44;;;;;;;;;;;23.60;67.90;;;;;;5123385;28;19920;-49
2023/10/04 03:03:12;;;;;;;;;;;23.60;67.90;;;;;;5104318;28;20768;-47
2023/10/04 03:05:40;;;;;;;;;;;23.60;67.90;;;;;;5122853;27;19918;-49
2023/10/04 03:08:06;;;;;;;;;;;23.60;68.10;;;;;;5116764;27;19938;-50
2023/10/04 03:10:33;;;;;;;;;;;23.60;68.00;;;;;;5123290;28;19935;-49
2023/10/04 03:13:01;;;;;;;;;;;23.60;68.00;;;;;;5123250;28;19919;-49
2023/10/04 03:15:28;;;;;;;;;;;23.60;68.00;;;;;;5120390;28;19918;-49
2023/10/04 03:17:54;;;;;;;;;;;23.50;68.10;;;;;;5138103;27;19912;-48
2023/10/04 03:20:20;;;;;;;;;;;23.50;68.00;;;;;;5120655;28;19920;-48
2023/10/04 03:22:50;;;;;;;;;;;23.50;68.00;;;;;;5122819;28;20026;-47
2023/10/04 03:25:16;;;;;;;;;;;23.50;68.00;;;;;;5121903;28;20403;-48
2023/10/04 03:27:44;;;;;;;;;;;23.50;68.10;;;;;;5137996;27;20587;-47
2023/10/04 03:30:14;;;;;;;;;;;23.50;68.10;;;;;;5103640;28;19912;-47
2023/10/04 03:32:53;;;;;;;;;;;23.50;68.10;;;;;;5108349;28;19982;-49
2023/10/04 03:35:21;;;;;;;;;;;23.50;68.20;;;;;;5122967;27;19935;-50
2023/10/04 03:37:55;;;;;;;;;;;23.40;68.10;;;;;;5122906;28;19911;-48
2023/10/04 03:40:22;;;;;;;;;;;23.40;68.10;;;;;;5122723;28;19916;-48
2023/10/04 03:42:48;;;;;;;;;;;23.40;68.30;;;;;;5122796;28;19922;-47
2023/10/04 03:45:18;;;;;;;;;;;23.40;68.30;;;;;;5122537;28;19912;-48
2023/10/04 03:47:45;;;;;;;;;;;23.40;68.30;;;;;;5122935;28;19912;-48
2023/10/04 03:50:12;;;;;;;;;;;23.40;68.30;;;;;;5122523;28;19922;-49
2023/10/04 03:52:39;;;;;;;;;;;23.40;68.30;;;;;;5123073;28;19918;-51
2023/10/04 03:55:10;;;;;;;;;;;23.30;68.40;;;;;;5122973;28;19908;-47
2023/10/04 03:57:38;;;;;;;;;;;23.30;68.40;;;;;;5122867;28;19922;-50
2023/10/04 04:00:11;;;;;;;;;;;23.30;68.30;;;;;;5122394;28;19919;-47
2023/10/04 04:02:38;;;;;;;;;;;23.30;68.40;;;;;;5123080;28;19919;-48
2023/10/04 04:07:48;;;;;;;;;;;23.30;68.40;;;;;;5115899;28;19930;-49
2023/10/04 04:10:14;;;;;;;;;;;23.30;68.40;;;;;;5121829;28;19915;-51
2023/10/04 04:12:41;;;;;;;;;;;23.30;68.50;;;;;;5122625;28;19911;-48
2023/10/04 04:15:14;;;;;;;;;;;23.30;68.50;;;;;;5120884;28;19912;-49
2023/10/04 04:17:41;;;;;;;;;;;23.20;68.50;;;;;;5119917;28;20032;-47
2023/10/04 04:20:13;;;;;;;;;;;23.20;68.50;;;;;;5122311;28;19919;-49
2023/10/04 04:22:39;;;;;;;;;;;23.20;68.60;;;;;;5122960;28;19912;-47
2023/10/04 04:25:14;;;;;;;;;;;23.20;68.60;;;;;;5122258;28;19983;-47
2023/10/04 04:27:43;;;;;;;;;;;23.20;68.60;;;;;;5125751;27;19912;-47
2023/10/04 04:30:16;;;;;;;;;;;23.20;68.60;;;;;;5107625;28;19911;-47
2023/10/04 04:32:44;;;;;;;;;;;23.20;68.70;;;;;;5126984;28;19943;-47
2023/10/04 04:35:14;;;;;;;;;;;23.10;68.60;;;;;;5125859;28;19980;-48
2023/10/04 04:37:41;;;;;;;;;;;23.10;68.60;;;;;;5137098;27;20374;-47
2023/10/04 04:40:09;;;;;;;;;;;23.10;68.60;;;;;;5123836;28;19924;-48
2023/10/04 04:42:43;;;;;;;;;;;23.10;68.60;;;;;;5123054;28;19919;-49
2023/10/04 04:45:25;;;;;;;;;;;23.10;68.60;;;;;;5125985;27;19931;-48
2023/10/04 04:47:52;;;;;;;;;;;23.10;68.70;;;;;;5126311;28;20744;-49
2023/10/04 04:50:19;;;;;;;;;;;23.10;68.70;;;;;;5126122;28;19908;-48
2023/10/04 04:52:45;;;;;;;;;;;23.10;68.80;;;;;;5126837;28;19971;-47
2023/10/04 04:55:11;;;;;;;;;;;23.10;68.90;;;;;;5125450;28;19977;-49
2023/10/04 04:57:38;;;;;;;;;;;23.00;68.90;;;;;;5126118;28;19927;-48
2023/10/04 05:00:31;;;;;;;;;;;23.00;68.80;;;;;;5124884;27;20368;-47
2023/10/04 05:02:49;;;;;;;;;;;23.00;68.80;;;;;;5125831;28;19912;-49
2023/10/04 05:05:20;;;;;;;;;;;23.00;68.90;;;;;;5125074;28;19924;-47
2023/10/04 05:07:47;;;;;;;;;;;23.00;68.80;;;;;;5128791;27;19954;-47
2023/10/04 05:10:14;;;;;;;;;;;23.00;69.60;;;;;;5125054;28;19912;-48
2023/10/04 05:12:40;;;;;;;;;;;22.90;68.80;;;;;;5126094;28;20287;-46
2023/10/04 05:15:22;;;;;;;;;;;22.90;68.90;;;;;;5125862;27;19911;-48
2023/10/04 05:17:51;;;;;;;;;;;22.90;68.90;;;;;;5125015;28;19953;-48
2023/10/04 05:20:21;;;;;;;;;;;22.90;68.90;;;;;;5124816;28;19927;-50
2023/10/04 05:22:50;;;;;;;;;;;22.90;68.90;;;;;;5126176;28;19934;-47
2023/10/04 05:25:16;;;;;;;;;;;22.90;68.90;;;;;;5107128;28;19919;-47
2023/10/04 05:27:43;;;;;;;;;;;22.90;69.00;;;;;;5107275;28;20344;-47
2023/10/04 05:30:15;;;;;;;;;;;22.90;69.00;;;;;;5124717;28;19917;-49
2023/10/04 05:32:42;;;;;;;;;;;22.90;69.00;;;;;;5107966;27;19923;-49
2023/10/04 05:35:12;;;;;;;;;;;22.80;69.70;;;;;;5125484;27;19912;-47
2023/10/04 05:37:39;;;;;;;;;;;22.80;68.90;;;;;;5125509;27;19933;-49
2023/10/04 05:40:10;;;;;;;;;;;22.80;69.00;;;;;;5124857;28;19947;-48
2023/10/04 05:42:36;;;;;;;;;;;22.80;69.10;;;;;;5123781;27;19907;-47
2023/10/04 05:45:03;;;;;;;;;;;22.80;69.20;;;;;;5125181;27;19916;-47
2023/10/04 05:47:29;;;;;;;;;;;22.80;69.20;;;;;;5140687;27;19908;-49
2023/10/04 05:49:55;;;;;;;;;;;22.80;69.20;;;;;;5140089;27;19918;-47
2023/10/04 05:52:22;;;;;;;;;;;22.70;69.10;;;;;;5121992;27;19912;-48
2023/10/04 05:54:48;;;;;;;;;;;22.70;69.10;;;;;;5120880;28;19931;-48
2023/10/04 05:57:14;;;;;;;;;;;22.70;69.10;;;;;;5124487;27;19912;-48
2023/10/04 05:59:40;;;;;;;;;;;22.70;69.20;;;;;;5124795;28;19948;-47
2023/10/04 06:02:07;;;;;;;;;;;22.70;69.10;;;;;;5124562;28;20064;-48
2023/10/04 06:04:33;;;;;;;;;;;22.70;69.30;;;;;;5117292;28;19959;-48
2023/10/04 06:06:59;;;;;;;;;;;22.70;69.30;;;;;;5124760;28;19911;-47
2023/10/04 06:09:29;;;;;;;;;;;22.70;69.20;;;;;;5124731;28;19908;-47
2023/10/04 06:11:56;;;;;;;;;;;22.60;69.30;;;;;;5124443;28;19911;-47
2023/10/04 06:14:22;;;;;;;;;;;22.60;69.30;;;;;;5124384;28;19916;-49
2023/10/04 06:16:50;;;;;;;;;;;22.60;69.40;;;;;;5124964;28;20396;-49
2023/10/04 06:19:19;;;;;;;;;;;22.60;69.40;;;;;;5122706;28;19927;-47
2023/10/04 06:21:49;;;;;;;;;;;22.60;69.40;;;;;;5123887;28;19911;-47
2023/10/04 06:24:15;;;;;;;;;;;22.60;69.50;;;;;;5123963;28;19919;-47
2023/10/04 06:26:41;;;;;;;;;;;22.60;69.50;;;;;;5124713;28;19915;-46
2023/10/04 06:29:07;;;;;;;;;;;22.60;69.60;;;;;;5123220;28;19947;-47
2023/10/04 06:31:33;;;;;;;;;;;22.60;69.60;;;;;;5122418;28;19914;-48
2023/10/04 06:34:00;;;;;;;;;;;22.50;70.20;;;;;;5115570;28;19912;-47
2023/10/04 06:36:26;;;;;;;;;;;22.50;69.40;;;;;;5117321;28;19933;-46
2023/10/04 06:38:52;;;;;;;;;;;22.50;69.50;;;;;;5124502;27;19915;-46
2023/10/04 06:41:24;;;;;;;;;;;22.50;69.50;;;;;;5123827;28;20452;-47
2023/10/04 06:43:49;;;;;;;;;;;22.50;69.50;;;;;;5123980;28;19939;-48
2023/10/04 06:46:15;;;;;;;;;;;22.50;69.50;;;;;;5123738;28;19967;-47
2023/10/04 06:48:42;;;;;;;;;;;22.50;69.60;;;;;;5123449;28;19916;-46
2023/10/04 06:51:09;;;;;;;;;;;22.50;69.60;;;;;;5123861;28;19963;-48
2023/10/04 06:53:35;;;;;;;;;;;22.50;69.80;;;;;;5124417;28;20350;-47
2023/10/04 06:56:01;;;;;;;;;;;22.40;69.60;;;;;;5123479;28;19962;-46
2023/10/04 06:58:28;;;;;;;;;;;22.40;69.60;;;;;;5123734;28;19924;-46
2023/10/04 07:00:56;;;;;;;;;;;22.40;69.60;;;;;;5123604;28;19920;-48
2023/10/04 07:03:22;;;;;;;;;;;22.40;69.70;;;;;;5123230;28;19917;-48
2023/10/04 07:05:49;;;;;;;;;;;22.40;69.70;;;;;;5123517;28;19971;-47
2023/10/04 07:08:16;;;;;;;;;;;22.40;69.80;;;;;;5123242;27;20003;-46
2023/10/04 07:10:42;;;;;;;;;;;22.40;69.80;;;;;;5123428;28;19983;-48
2023/10/04 07:13:08;;;;;;;;;;;22.40;69.70;;;;;;5123223;28;19911;-48
2023/10/04 07:15:44;;;;;;;;;;;22.40;69.80;;;;;;5124005;28;19974;-48
2023/10/04 07:18:11;;;;;;;;;;;22.30;69.80;;;;;;5123228;28;19907;-47
2023/10/04 07:20:37;;;;;;;;;;;22.30;69.80;;;;;;5123471;28;19916;-46
2023/10/04 07:23:03;;;;;;;;;;;22.30;69.80;;;;;;5107189;28;19918;-47
2023/10/04 07:25:30;;;;;;;;;;;22.30;69.90;;;;;;5118712;28;19912;-48
2023/10/04 07:27:57;;;;;;;;;;;22.30;69.90;;;;;;5110993;28;19975;-48
2023/10/04 07:30:24;;;;;;;;;;;22.30;70.00;;;;;;5124030;28;19954;-48
2023/10/04 07:32:51;;;;;;;;;;;22.30;70.00;;;;;;5123100;28;19999;-49
2023/10/04 07:35:20;;;;;;;;;;;22.30;70.00;;;;;;5122958;28;19911;-48
2023/10/04 07:37:46;;;;;;;;;;;22.20;70.00;;;;;;5123229;28;20569;-48
2023/10/04 07:40:14;;;;;;;;;;;22.20;70.00;;;;;;5121162;28;19923;-48
2023/10/04 07:42:40;;;;;;;;;;;22.20;70.00;;;;;;5123653;28;19982;-46
2023/10/04 07:45:07;;;;;;;;;;;22.20;70.10;;;;;;5123272;28;19908;-47
2023/10/04 07:47:34;;;;;;;;;;;22.20;70.00;;;;;;5123006;28;19918;-47
2023/10/04 07:50:00;;;;;;;;;;;22.20;70.00;;;;;;5114844;28;19912;-50
2023/10/04 07:52:26;;;;;;;;;;;22.20;70.10;;;;;;5121407;28;19983;-47
2023/10/04 07:54:53;;;;;;;;;;;22.20;70.10;;;;;;5114915;28;19911;-48
2023/10/04 07:57:19;;;;;;;;;;;22.20;70.10;;;;;;5111693;28;19954;-48
2023/10/04 07:59:45;;;;;;;;;;;22.10;70.10;;;;;;5102920;28;19955;-47
2023/10/04 08:02:11;;;;;;;;;;;22.10;70.10;;;;;;5105679;28;19927;-47
2023/10/04 08:04:37;;;;;;;;;;;22.10;70.20;;;;;;5098779;28;19912;-48
2023/10/04 08:07:03;;;;;;;;;;;22.10;70.20;;;;;;5097331;28;19915;-48
2023/10/04 08:09:28;;;;;;;;;;;22.10;70.20;;;;;;5099749;28;19912;-47
2023/10/04 08:11:54;;;;;;;;;;;22.10;70.30;;;;;;5098853;28;19912;-48
2023/10/04 08:14:23;;;;;;;;;;;22.10;70.30;;;;;;5097037;28;19955;-48
2023/10/04 08:16:50;;;;;;;;;;;22.10;70.30;;;;;;5106485;28;20456;-47
2023/10/04 08:19:16;;;;;;;;;;;22.10;70.30;;;;;;5106323;28;19920;-49
2023/10/04 08:21:42;;;;;;;;;;;22.10;70.30;;;;;;5106991;28;19923;-47
2023/10/04 08:24:08;;;;;;;;;;;22.00;70.20;;;;;;5106491;28;19912;-46
2023/10/04 08:26:33;;;;;;;;;;;22.10;70.40;;;;;;5106625;28;19943;-46
2023/10/04 08:28:59;;;;;;;;;;;22.00;70.30;;;;;;5107012;28;19918;-48
2023/10/04 08:31:25;;;;;;;;;;;22.00;70.40;;;;;;5106663;28;19934;-46
2023/10/04 08:33:51;;;;;;;;;;;22.00;70.40;;;;;;5113106;28;20556;-46
2023/10/04 08:36:17;;;;;;;;;;;22.00;70.40;;;;;;5106520;28;19930;-47
2023/10/04 08:38:45;;;;;;;;;;;22.00;70.40;;;;;;5101639;28;20384;-47
2023/10/04 08:41:11;;;;;;;;;;;22.00;70.40;;;;;;5105734;28;20062;-47
2023/10/04 08:43:38;;;;;;;;;;;22.00;70.40;;;;;;5099065;28;19912;-47
2023/10/04 08:46:04;;;;;;;;;;;21.90;70.40;;;;;;5105798;28;19912;-46
2023/10/04 08:48:30;;;;;;;;;;;21.90;70.50;;;;;;5106436;28;19912;-47
2023/10/04 08:51:28;;;;;;;;;;;21.90;70.40;;;;;;5105078;28;19947;-47
2023/10/04 08:54:01;;;;;;;;;;;21.90;70.50;;;;;;5062229;28;19935;-48
2023/10/04 08:56:28;;;;;;;;;;;21.90;70.60;;;;;;5068248;28;19913;-46
2023/10/04 08:58:53;;;;;;;;;;;21.90;70.70;;;;;;5062442;28;19983;-50
2023/10/04 09:01:20;;;;;;;;;;;21.90;70.60;;;;;;5062128;28;19987;-47
2023/10/04 09:03:47;;;;;;;;;;;21.90;70.70;;;;;;5062085;28;19913;-46
2023/10/04 09:06:16;;;;;;;;;;;21.90;70.70;;;;;;5061774;28;20357;-47
2023/10/04 09:08:44;;;;;;;;;;;21.80;70.50;;;;;;5062116;28;19924;-47
2023/10/04 09:11:15;;;;;;;;;;;21.80;70.50;;;;;;5061074;28;19987;-48
2023/10/04 09:13:45;;;;;;;;;;;21.80;70.60;;;;;;5060844;28;19986;-46
2023/10/04 09:16:20;;;;;;;;;;;21.80;70.60;;;;;;5060819;28;19975;-46
2023/10/04 09:18:46;;;;;;;;;;;21.80;70.60;;;;;;5057699;28;19936;-47
2023/10/04 09:21:15;;;;;;;;;;;21.80;70.60;;;;;;5061269;28;19924;-46
2023/10/04 09:23:43;;;;;;;;;;;21.80;70.70;;;;;;5061891;28;19913;-48
2023/10/04 09:26:19;;;;;;;;;;;21.80;70.70;;;;;;5054472;28;19940;-48
2023/10/04 09:28:44;;;;;;;;;;;21.80;70.70;;;;;;5073745;28;19919;-47
2023/10/04 09:31:12;;;;;;;;;;;21.80;70.80;;;;;;5140053;27;19912;-46
2023/10/04 09:33:38;;;;;;;;;;;21.80;70.80;;;;;;5124753;28;20438;-46
2023/10/04 09:36:04;;;;;;;;;;;21.80;70.80;;;;;;5118655;27;19907;-47
2023/10/04 09:38:31;;;;;;;;;;;21.70;71.50;;;;;;5124989;28;19947;-46
2023/10/04 09:40:59;;;;;;;;;;;21.70;70.80;;;;;;5124812;27;19919;-46
2023/10/04 09:43:39;;;;;;;;;;;21.70;70.80;;;;;;5117587;28;19954;-47
2023/10/04 09:46:09;;;;;;;;;;;21.70;70.80;;;;;;5124212;28;20443;-46
2023/10/04 09:48:37;;;;;;;;;;;21.70;70.80;;;;;;5125235;28;19998;-46
2023/10/04 09:51:06;;;;;;;;;;;21.70;70.80;;;;;;5124806;27;19907;-46
2023/10/04 09:53:40;;;;;;;;;;;21.70;70.90;;;;;;5123437;28;19908;-46
2023/10/04 09:56:07;;;;;;;;;;;21.70;70.90;;;;;;5122417;28;19940;-46
2023/10/04 09:58:33;;;;;;;;;;;21.70;70.90;;;;;;5124816;28;19916;-45
2023/10/04 10:01:11;;;;;;;;;;;21.60;70.80;;;;;;5125030;28;19927;-46
2023/10/04 10:03:44;;;;;;;;;;;21.60;70.90;;;;;;5119073;28;20396;-47
2023/10/04 10:06:11;;;;;;;;;;;21.60;70.90;;;;;;5137782;27;19934;-46
2023/10/04 10:08:37;;;;;;;;;;;21.60;70.90;;;;;;5124510;27;19933;-45
2023/10/04 10:11:05;;;;;;;;;;;21.60;70.90;;;;;;5105451;28;19912;-45
2023/10/04 10:13:31;;;;;;;;;;;21.60;71.00;;;;;;5124225;27;19912;-46
2023/10/04 10:15:56;;;;;;;;;;;21.50;71.00;;;;;;5139916;27;20010;-46
2023/10/04 10:18:22;;;;;;;;;;;21.60;71.10;;;;;;5124048;28;19911;-48
2023/10/04 10:20:48;;;;;;;;;;;21.60;71.10;;;;;;5125011;28;19915;-46
2023/10/04 10:23:15;;;;;;;;;;;21.60;71.10;;;;;;5106047;28;19946;-45
2023/10/04 10:25:41;;;;;;;;;;;21.60;71.10;;;;;;5124762;27;19926;-47
2023/10/04 10:28:18;;;;;;;;;;;21.50;71.10;;;;;;5124460;28;19911;-45
2023/10/04 10:30:44;;;;;;;;;;;21.50;71.00;;;;;;5127893;27;20567;-46
2023/10/04 10:33:12;;;;;;;;;;;21.50;71.10;;;;;;5107490;28;19914;-45
2023/10/04 10:35:56;;;;;;;;;;;21.50;71.10;;;;;;5122884;28;19911;-47
2023/10/04 10:38:40;;;;;;;;;;;21.50;71.10;;;;;;5123888;28;19927;-47
2023/10/04 10:41:06;;;;;;;;;;;21.50;71.10;;;;;;5123903;27;19954;-46
2023/10/04 10:43:35;;;;;;;;;;;21.50;71.10;;;;;;5123881;28;20372;-46
2023/10/04 10:46:28;;;;;;;;;;;21.50;71.20;;;;;;5124013;27;19911;-46
2023/10/04 10:48:57;;;;;;;;;;;21.50;71.20;;;;;;5121396;28;19911;-46
2023/10/04 10:51:45;;;;;;;;;;;21.40;71.20;;;;;;5123893;28;19943;-46
2023/10/04 10:54:10;;;;;;;;;;;21.40;71.30;;;;;;5138601;27;19915;-46
2023/10/04 10:56:39;;;;;;;;;;;21.40;71.20;;;;;;5122360;28;19964;-49
2023/10/04 10:59:05;;;;;;;;;;;21.40;71.30;;;;;;5122865;27;19943;-49
2023/10/04 11:01:31;;;;;;;;;;;21.40;71.30;;;;;;5123958;28;19920;-47
2023/10/04 11:03:59;;;;;;;;;;;21.40;71.20;;;;;;5123037;28;19912;-47
2023/10/04 11:06:25;;;;;;;;;;;21.40;71.30;;;;;;5115821;28;20570;-46
2023/10/04 11:08:53;;;;;;;;;;;21.40;71.40;;;;;;5128038;27;19938;-46
2023/10/04 11:11:21;;;;;;;;;;;21.40;71.30;;;;;;5122988;28;19908;-46
2023/10/04 11:13:48;;;;;;;;;;;21.40;71.30;;;;;;5139297;27;19933;-46
2023/10/04 11:16:14;;;;;;;;;;;21.40;71.40;;;;;;5122981;28;19912;-46
2023/10/04 11:18:40;;;;;;;;;;;21.30;71.20;;;;;;5123376;28;19912;-47
2023/10/04 11:21:06;;;;;;;;;;;21.30;71.30;;;;;;5122549;28;19927;-46
2023/10/04 11:23:37;;;;;;;;;;;21.30;71.30;;;;;;5123694;28;19965;-46
2023/10/04 11:26:04;;;;;;;;;;;21.30;71.40;;;;;;5122562;28;19914;-46
2023/10/04 11:28:30;;;;;;;;;;;21.30;71.40;;;;;;5123610;28;19911;-47
2023/10/04 11:30:56;;;;;;;;;;;21.30;71.40;;;;;;5123358;28;19918;-48
2023/10/04 11:33:23;;;;;;;;;;;21.30;71.40;;;;;;5123571;28;19918;-46
2023/10/04 11:35:49;;;;;;;;;;;21.30;71.40;;;;;;5138582;27;20022;-47
2023/10/04 11:38:16;;;;;;;;;;;21.20;71.40;;;;;;5122897;28;20368;-46
2023/10/04 11:40:48;;;;;;;;;;;21.30;72.20;;;;;;5122753;28;19923;-47
2023/10/04 11:43:14;;;;;;;;;;;21.20;71.50;;;;;;5123028;28;19922;-46
2023/10/04 11:45:40;;;;;;;;;;;21.20;71.40;;;;;;5122995;28;19975;-46
2023/10/04 11:48:08;;;;;;;;;;;21.20;71.40;;;;;;5122178;28;19918;-46
2023/10/04 11:51:01;;;;;;;;;;;21.20;71.50;;;;;;5116857;28;19912;-47
2023/10/04 11:53:45;;;;;;;;;;;21.20;71.50;;;;;;5115974;28;19915;-46
2023/10/04 11:56:11;;;;;;;;;;;21.20;71.50;;;;;;5122174;28;19911;-47
2023/10/04 11:58:47;;;;;;;;;;;21.20;71.50;;;;;;5117723;28;19973;-47
2023/10/04 12:01:16;;;;;;;;;;;21.20;71.50;;;;;;5122892;28;19923;-47
2023/10/04 12:03:42;;;;;;;;;;;21.20;71.60;;;;;;5122911;28;19933;-48
2023/10/04 12:06:08;;;;;;;;;;;21.10;71.50;;;;;;5122994;28;19939;-47
2023/10/04 12:08:35;;;;;;;;;;;21.10;71.60;;;;;;5121958;28;19912;-51
2023/10/04 12:11:13;;;;;;;;;;;21.10;71.60;;;;;;5120988;28;19915;-46
2023/10/04 12:13:41;;;;;;;;;;;21.10;71.60;;;;;;5122774;28;20333;-46
2023/10/04 12:16:07;;;;;;;;;;;21.10;71.70;;;;;;5122472;28;19911;-47
2023/10/04 12:18:34;;;;;;;;;;;21.10;71.70;;;;;;5122745;28;19983;-46
2023/10/04 12:21:00;;;;;;;;;;;21.10;71.70;;;;;;5119981;28;19923;-47
2023/10/04 12:23:26;;;;;;;;;;;21.10;72.40;;;;;;5105037;28;19912;-46
2023/10/04 12:25:52;;;;;;;;;;;21.10;71.60;;;;;;5122924;28;19943;-46
2023/10/04 12:28:19;;;;;;;;;;;21.00;71.70;;;;;;5114813;28;19907;-47
2023/10/04 12:30:48;;;;;;;;;;;21.10;71.70;;;;;;5116991;28;19907;-47
2023/10/04 12:33:13;;;;;;;;;;;21.00;71.70;;;;;;5115190;28;19919;-47
2023/10/04 12:35:39;;;;;;;;;;;21.00;71.60;;;;;;5123430;28;19917;-47
2023/10/04 12:38:05;;;;;;;;;;;21.00;71.70;;;;;;5118057;28;19909;-46
2023/10/04 12:40:32;;;;;;;;;;;21.00;71.80;;;;;;5121973;28;19935;-47
2023/10/04 12:42:58;;;;;;;;;;;21.00;71.80;;;;;;5107995;28;19912;-46
2023/10/04 12:45:24;;;;;;;;;;;21.00;71.80;;;;;;5116951;28;19908;-46
2023/10/04 12:47:50;;;;;;;;;;;21.00;71.90;;;;;;5112979;28;19919;-46
2023/10/04 12:50:16;;;;;;;;;;;21.00;71.90;;;;;;5118205;28;19912;-47
2023/10/04 12:52:42;;;;;;;;;;;21.00;71.90;;;;;;5124715;28;19923;-47
2023/10/04 12:55:08;;;;;;;;;;;21.00;71.90;;;;;;5117469;28;19911;-46
2023/10/04 12:57:38;;;;;;;;;;;20.90;71.80;;;;;;5119012;28;19915;-47
2023/10/04 13:00:13;;;;;;;;;;;20.90;71.70;;;;;;5126338;27;19926;-46
2023/10/04 13:02:42;;;;;;;;;;;20.90;72.50;;;;;;5125809;28;19919;-47
2023/10/04 13:05:11;;;;;;;;;;;20.90;71.80;;;;;;5126264;27;19911;-47
2023/10/04 13:07:37;;;;;;;;;;;20.90;71.80;;;;;;5125569;28;20392;-47
2023/10/04 13:10:09;;;;;;;;;;;20.90;71.80;;;;;;5118532;28;19970;-46
2023/10/04 13:12:38;;;;;;;;;;;20.90;71.80;;;;;;5126859;27;20332;-46
2023/10/04 13:15:08;;;;;;;;;;;20.90;71.80;;;;;;5118171;28;19912;-47
2023/10/04 13:17:34;;;;;;;;;;;20.90;71.80;;;;;;5119711;28;19912;-46
2023/10/04 13:20:00;;;;;;;;;;;20.90;71.80;;;;;;5125481;28;19939;-47
2023/10/04 13:22:28;;;;;;;;;;;20.90;71.90;;;;;;5118087;28;19915;-46
2023/10/04 13:24:54;;;;;;;;;;;20.90;72.00;;;;;;5124568;27;19907;-47
2023/10/04 13:27:19;;;;;;;;;;;20.90;71.90;;;;;;5124726;27;19918;-47
2023/10/04 13:29:46;;;;;;;;;;;20.90;72.00;;;;;;5118389;28;19934;-48
2023/10/04 13:32:15;;;;;;;;;;;20.90;72.00;;;;;;5118531;27;19923;-46
2023/10/04 13:34:44;;;;;;;;;;;20.90;72.00;;;;;;5122854;28;19911;-46
2023/10/04 13:37:11;;;;;;;;;;;20.90;72.00;;;;;;5124203;27;19912;-47
2023/10/04 13:39:37;;;;;;;;;;;20.90;72.00;;;;;;5118080;28;19915;-46
2023/10/04 13:42:03;;;;;;;;;;;20.90;72.00;;;;;;5124840;28;19907;-47
2023/10/04 13:44:32;;;;;;;;;;;20.80;71.90;;;;;;5126488;27;19982;-47
2023/10/04 13:46:58;;;;;;;;;;;20.90;72.00;;;;;;5125275;27;19957;-46
2023/10/04 13:49:26;;;;;;;;;;;20.90;72.00;;;;;;5117942;28;19912;-48
2023/10/04 13:51:54;;;;;;;;;;;20.90;72.00;;;;;;5124442;28;19916;-46
2023/10/04 13:54:21;;;;;;;;;;;20.90;72.00;;;;;;5115906;28;19908;-46
2023/10/04 13:56:47;;;;;;;;;;;20.90;72.00;;;;;;5125349;28;19934;-47
2023/10/04 13:59:13;;;;;;;;;;;20.90;72.00;;;;;;5123518;28;19923;-47
2023/10/04 14:01:41;;;;;;;;;;;20.90;72.00;;;;;;5125150;28;19907;-47
2023/10/04 14:04:08;;;;;;;;;;;20.90;72.00;;;;;;5117646;28;20022;-48
2023/10/04 14:06:35;;;;;;;;;;;20.90;72.00;;;;;;5124354;28;19911;-48
2023/10/04 14:09:10;;;;;;;;;;;20.90;72.00;;;;;;5125239;27;19915;-48
2023/10/04 14:11:36;;;;;;;;;;;20.80;71.90;;;;;;5133246;27;19918;-48
2023/10/04 14:14:07;;;;;;;;;;;20.80;72.00;;;;;;5123692;28;19907;-47
2023/10/04 14:16:33;;;;;;;;;;;20.80;72.00;;;;;;5125023;28;19915;-48
2023/10/04 14:18:59;;;;;;;;;;;20.80;72.00;;;;;;5120137;27;20021;-48
2023/10/04 14:21:25;;;;;;;;;;;20.90;72.10;;;;;;5124244;28;19920;-48
2023/10/04 14:23:51;;;;;;;;;;;20.90;72.10;;;;;;5124230;28;20044;-47